createdAt,value
2019-05-07T00:02:06.540Z,99724.00
2019-05-07T00:04:12.899Z,99715.00
2019-05-07T00:06:18.294Z,99712.00
2019-05-07T00:08:23.737Z,99709.00
2019-05-07T00:10:28.831Z,99709.00
2019-05-07T00:12:33.926Z,99706.00
2019-05-07T00:14:39.785Z,99708.00
2019-05-07T00:16:44.958Z,99714.00
2019-05-07T00:18:52.416Z,99702.00
2019-05-07T00:20:57.238Z,99707.00
2019-05-07T00:23:03.047Z,99709.00
2019-05-07T00:25:08.778Z,99705.00
2019-05-07T00:27:14.292Z,99708.00
2019-05-07T00:29:19.464Z,99709.00
2019-05-07T00:31:24.899Z,99704.00
2019-05-07T00:33:32.358Z,99700.00
2019-05-07T00:35:44.221Z,99699.00
2019-05-07T00:37:55.384Z,99701.00
2019-05-07T00:40:14.768Z,99706.00
2019-05-07T00:42:25.656Z,99705.00
2019-05-07T00:44:32.789Z,99701.00
2019-05-07T00:46:38.763Z,99705.00
2019-05-07T00:48:44.271Z,99704.00
2019-05-07T00:50:52.769Z,99703.00
2019-05-07T00:52:58.593Z,99696.00
2019-05-07T00:55:03.800Z,99702.00
2019-05-07T00:57:09.416Z,99698.00
2019-05-07T00:59:14.698Z,99705.00
2019-05-07T01:01:23.584Z,99701.00
2019-05-07T01:03:32.843Z,99690.00
2019-05-07T01:05:43.239Z,99692.00
2019-05-07T01:07:52.953Z,99695.00
2019-05-07T01:09:59.014Z,99701.00
2019-05-07T01:12:04.579Z,99684.00
2019-05-07T01:14:09.742Z,99697.00
2019-05-07T01:16:15.259Z,99687.00
2019-05-07T01:18:20.445Z,99691.00
2019-05-07T01:20:25.852Z,99698.00
2019-05-07T01:22:33.008Z,99701.00
2019-05-07T01:24:38.008Z,99701.00
2019-05-07T01:26:43.315Z,99693.00
2019-05-07T01:29:02.945Z,99701.00
2019-05-07T01:31:08.921Z,99696.00
2019-05-07T01:33:22.736Z,99703.00
2019-05-07T01:35:45.830Z,99696.00
2019-05-07T01:37:52.456Z,99698.00
2019-05-07T01:39:57.498Z,99695.00
2019-05-07T01:42:03.315Z,99699.00
2019-05-07T01:44:08.904Z,99697.00
2019-05-07T01:46:14.077Z,99694.00
2019-05-07T01:48:19.312Z,99696.00
2019-05-07T01:50:24.589Z,99696.00
2019-05-07T01:52:30.028Z,99697.00
2019-05-07T01:54:35.468Z,99701.00
2019-05-07T01:56:42.728Z,99692.00
2019-05-07T01:58:48.022Z,99685.00
2019-05-07T02:00:54.379Z,99681.00
2019-05-07T02:03:06.355Z,99686.00
2019-05-07T02:05:22.872Z,99687.00
2019-05-07T02:07:33.532Z,99685.00
2019-05-07T02:09:49.117Z,99691.00
2019-05-07T02:12:13.326Z,99695.00
2019-05-07T02:14:18.355Z,99683.00
2019-05-07T02:16:23.928Z,99695.00
2019-05-07T02:18:29.631Z,99695.00
2019-05-07T02:20:34.584Z,99687.00
2019-05-07T02:22:42.586Z,99682.00
2019-05-07T02:24:47.861Z,99682.00
2019-05-07T02:26:52.821Z,99685.00
2019-05-07T02:28:58.182Z,99687.00
2019-05-07T02:31:04.327Z,99686.00
2019-05-07T02:33:09.651Z,99687.00
2019-05-07T02:35:14.854Z,99688.00
2019-05-07T02:37:35.721Z,99686.00
2019-05-07T02:39:44.677Z,99671.00
2019-05-07T02:41:50.256Z,99686.00
2019-05-07T02:43:59.825Z,99685.00
2019-05-07T02:46:31.075Z,99678.00
2019-05-07T02:48:36.929Z,99684.00
2019-05-07T02:50:49.108Z,99677.00
2019-05-07T02:53:04.112Z,99685.00
2019-05-07T02:55:15.830Z,99681.00
2019-05-07T02:57:23.989Z,99680.00
2019-05-07T02:59:28.909Z,99678.00
2019-05-07T03:01:34.492Z,99672.00
2019-05-07T03:03:39.656Z,99677.00
2019-05-07T03:05:45.119Z,99676.00
2019-05-07T03:07:53.554Z,99672.00
2019-05-07T03:09:58.571Z,99671.00
2019-05-07T03:12:04.275Z,99681.00
2019-05-07T03:14:09.639Z,99687.00
2019-05-07T03:16:14.808Z,99668.00
2019-05-07T03:18:23.068Z,99678.00
2019-05-07T03:20:33.565Z,99678.00
2019-05-07T03:22:38.899Z,99671.00
2019-05-07T03:24:55.773Z,99667.00
2019-05-07T03:27:03.230Z,99674.00
2019-05-07T03:29:13.183Z,99669.00
2019-05-07T03:31:25.995Z,99678.00
2019-05-07T03:33:46.494Z,99675.00
2019-05-07T03:35:56.261Z,99677.00
2019-05-07T03:37:58.018Z,99680.00
2019-05-07T03:40:04.242Z,99680.00
2019-05-07T03:42:12.756Z,99682.00
2019-05-07T03:44:34.595Z,99679.00
2019-05-07T03:46:54.517Z,99685.00
2019-05-07T03:48:47.827Z,99670.00
2019-05-07T03:50:53.406Z,99682.00
2019-05-07T03:52:58.852Z,99674.00
2019-05-07T03:55:04.123Z,99674.00
2019-05-07T03:57:11.074Z,99680.00
2019-05-07T03:59:15.906Z,99676.00
2019-05-07T04:01:24.055Z,99675.00
2019-05-07T04:03:28.346Z,99679.00
2019-05-07T04:05:34.424Z,99682.00
2019-05-07T04:07:42.725Z,99682.00
2019-05-07T04:09:46.828Z,99682.00
2019-05-07T04:11:52.959Z,99675.00
2019-05-07T04:13:58.217Z,99677.00
2019-05-07T04:16:04.320Z,99671.00
2019-05-07T04:18:12.857Z,99680.00
2019-05-07T04:20:16.750Z,99682.00
2019-05-07T04:22:26.426Z,99676.00
2019-05-07T04:24:53.575Z,99682.00
2019-05-07T04:27:23.656Z,99675.00
2019-05-07T04:29:27.598Z,99676.00
2019-05-07T04:31:36.961Z,99682.00
2019-05-07T04:33:43.901Z,99679.00
2019-05-07T04:35:58.646Z,99676.00
2019-05-07T04:38:06.972Z,99679.00
2019-05-07T04:40:13.524Z,99687.00
2019-05-07T04:42:18.171Z,99684.00
2019-05-07T04:44:23.970Z,99684.00
2019-05-07T04:46:29.042Z,99685.00
2019-05-07T04:48:34.759Z,99673.00
2019-05-07T04:50:44.354Z,99673.00
2019-05-07T04:52:48.585Z,99685.00
2019-05-07T04:54:53.927Z,99685.00
2019-05-07T04:56:59.089Z,99672.00
2019-05-07T04:59:04.288Z,99677.00
2019-05-07T05:01:13.853Z,99686.00
2019-05-07T05:03:26.001Z,99680.00
2019-05-07T05:05:33.022Z,99672.00
2019-05-07T05:07:38.031Z,99675.00
2019-05-07T05:09:43.479Z,99675.00
2019-05-07T05:11:48.561Z,99669.00
2019-05-07T05:13:53.742Z,99673.00
2019-05-07T05:16:02.032Z,99663.00
2019-05-07T05:18:07.279Z,99680.00
2019-05-07T05:20:14.903Z,99680.00
2019-05-07T05:22:42.610Z,99679.00
2019-05-07T05:24:52.747Z,99678.00
2019-05-07T05:26:57.861Z,99686.00
2019-05-07T05:29:02.889Z,99677.00
2019-05-07T05:31:08.725Z,99684.00
2019-05-07T05:33:14.202Z,99692.00
2019-05-07T05:35:19.451Z,99684.00
2019-05-07T05:37:24.781Z,99675.00
2019-05-07T05:39:32.032Z,99682.00
2019-05-07T05:41:39.660Z,99691.00
2019-05-07T05:44:02.459Z,99685.00
2019-05-07T05:46:08.321Z,99684.00
2019-05-07T05:48:14.108Z,99687.00
2019-05-07T05:50:19.356Z,99679.00
2019-05-07T05:52:42.374Z,99683.00
2019-05-07T05:54:57.762Z,99674.00
2019-05-07T05:57:19.759Z,99681.00
2019-05-07T05:59:48.948Z,99676.00
2019-05-07T06:02:06.202Z,99673.00
2019-05-07T06:04:22.134Z,99681.00
2019-05-07T06:06:32.899Z,99677.00
2019-05-07T06:09:01.989Z,99673.00
2019-05-07T06:11:32.080Z,99672.00
2019-05-07T06:13:46.931Z,99672.00
2019-05-07T06:16:02.940Z,99669.00
2019-05-07T06:18:29.706Z,99669.00
2019-05-07T06:20:59.922Z,99665.00
2019-05-07T06:23:43.039Z,99668.00
2019-05-07T06:25:48.786Z,99666.00
2019-05-07T06:27:54.273Z,99663.00
2019-05-07T06:30:02.810Z,99669.00
2019-05-07T06:32:08.571Z,99678.00
2019-05-07T06:34:14.015Z,99670.00
2019-05-07T06:36:19.398Z,99674.00
2019-05-07T06:38:26.146Z,99666.00
2019-05-07T06:40:44.641Z,99668.00
2019-05-07T06:43:24.121Z,99665.00
2019-05-07T06:45:35.182Z,99661.00
2019-05-07T06:47:39.607Z,99668.00
2019-05-07T06:49:44.837Z,99666.00
2019-05-07T06:51:50.023Z,99666.00
2019-05-07T06:53:55.207Z,99668.00
2019-05-07T06:56:02.847Z,99663.00
2019-05-07T06:58:12.091Z,99663.00
2019-05-07T07:00:37.107Z,99663.00
2019-05-07T07:02:52.486Z,99662.00
2019-05-07T07:05:23.408Z,99669.00
2019-05-07T07:07:37.055Z,99661.00
2019-05-07T07:09:45.953Z,99668.00
2019-05-07T07:11:55.283Z,99664.00
2019-05-07T07:14:02.506Z,99662.00
2019-05-07T07:16:07.412Z,99656.00
2019-05-07T07:18:12.686Z,99662.00
2019-05-07T07:20:18.378Z,99659.00
2019-05-07T07:22:23.808Z,99656.00
2019-05-07T07:24:28.909Z,99649.00
2019-05-07T07:26:35.952Z,99651.00
2019-05-07T07:28:42.955Z,99640.00
2019-05-07T07:31:13.808Z,99638.00
2019-05-07T07:33:22.316Z,99643.00
2019-05-07T07:35:27.073Z,99645.00
2019-05-07T07:37:36.547Z,99639.00
2019-05-07T07:39:43.013Z,99640.00
2019-05-07T07:41:52.338Z,99631.00
2019-05-07T07:43:57.835Z,99640.00
2019-05-07T07:46:03.005Z,99640.00
2019-05-07T07:48:08.216Z,99641.00
2019-05-07T07:50:14.143Z,99631.00
2019-05-07T07:52:19.382Z,99635.00
2019-05-07T07:54:24.858Z,99625.00
2019-05-07T07:56:58.504Z,99627.00
2019-05-07T07:59:28.100Z,99621.00
2019-05-07T08:01:42.528Z,99626.00
2019-05-07T08:03:47.865Z,99620.00
2019-05-07T08:05:53.290Z,99613.00
2019-05-07T08:07:58.769Z,99606.00
2019-05-07T08:10:04.586Z,99614.00
2019-05-07T08:12:09.759Z,99610.00
2019-05-07T08:14:14.944Z,99617.00
2019-05-07T08:16:22.279Z,99614.00
2019-05-07T08:18:27.552Z,99615.00
2019-05-07T08:20:32.842Z,99625.00
2019-05-07T08:22:38.411Z,99616.00
2019-05-07T08:24:43.557Z,99610.00
2019-05-07T08:26:48.741Z,99613.00
2019-05-07T08:28:53.907Z,99602.00
2019-05-07T08:31:17.034Z,99598.00
2019-05-07T08:33:32.128Z,99607.00
2019-05-07T08:35:52.099Z,99601.00
2019-05-07T08:37:57.067Z,99599.00
2019-05-07T08:40:03.061Z,99608.00
2019-05-07T08:42:08.643Z,99600.00
2019-05-07T08:44:18.077Z,99600.00
2019-05-07T08:46:35.114Z,99598.00
2019-05-07T08:48:45.045Z,99597.00
2019-05-07T08:50:52.407Z,99598.00
2019-05-07T08:52:57.285Z,99592.00
2019-05-07T08:55:02.443Z,99596.00
2019-05-07T08:57:07.608Z,99602.00
2019-05-07T08:59:12.692Z,99602.00
2019-05-07T09:01:17.750Z,99599.00
2019-05-07T09:03:42.898Z,99594.00
2019-05-07T09:05:47.746Z,99594.00
2019-05-07T09:07:53.097Z,99595.00
2019-05-07T09:09:58.498Z,99584.00
2019-05-07T09:12:03.950Z,99590.00
2019-05-07T09:14:09.420Z,99591.00
2019-05-07T09:16:14.957Z,99597.00
2019-05-07T09:18:20.264Z,99590.00
2019-05-07T09:20:25.415Z,99587.00
2019-05-07T09:22:32.324Z,99587.00
2019-05-07T09:24:37.946Z,99579.00
2019-05-07T09:26:52.416Z,99586.00
2019-05-07T09:29:07.666Z,99587.00
2019-05-07T09:31:19.149Z,99575.00
2019-05-07T09:33:46.410Z,99579.00
2019-05-07T09:35:53.652Z,99576.00
2019-05-07T09:37:59.074Z,99577.00
2019-05-07T09:40:04.236Z,99576.00
2019-05-07T09:42:12.071Z,99574.00
2019-05-07T09:44:17.237Z,99573.00
2019-05-07T09:46:22.737Z,99582.00
2019-05-07T09:48:28.663Z,99571.00
2019-05-07T09:50:34.430Z,99580.00
2019-05-07T09:52:42.533Z,99574.00
2019-05-07T09:54:47.310Z,99569.00
2019-05-07T09:56:52.623Z,99572.00
2019-05-07T09:58:58.008Z,99580.00
2019-05-07T10:01:03.550Z,99571.00
2019-05-07T10:03:09.326Z,99565.00
2019-05-07T10:05:14.884Z,99570.00
2019-05-07T10:07:22.092Z,99569.00
2019-05-07T10:09:27.009Z,99554.00
2019-05-07T10:11:38.654Z,99564.00
2019-05-07T10:14:09.126Z,99569.00
2019-05-07T10:16:18.404Z,99575.00
2019-05-07T10:18:23.587Z,99565.00
2019-05-07T10:20:30.095Z,99565.00
2019-05-07T10:22:35.742Z,99569.00
2019-05-07T10:24:41.934Z,99563.00
2019-05-07T10:26:47.645Z,99563.00
2019-05-07T10:28:53.752Z,99572.00
2019-05-07T10:30:59.184Z,99561.00
2019-05-07T10:33:04.550Z,99570.00
2019-05-07T10:35:12.776Z,99566.00
2019-05-07T10:37:18.259Z,99562.00
2019-05-07T10:39:23.825Z,99563.00
2019-05-07T10:41:31.382Z,99563.00
2019-05-07T10:43:36.670Z,99564.00
2019-05-07T10:46:04.219Z,99555.00
2019-05-07T10:48:28.371Z,99557.00
2019-05-07T10:50:39.042Z,99560.00
2019-05-07T10:52:42.363Z,99550.00
2019-05-07T10:54:57.563Z,99556.00
2019-05-07T10:56:54.878Z,99551.00
2019-05-07T10:59:02.860Z,99563.00
2019-05-07T11:01:08.121Z,99550.00
2019-05-07T11:03:13.533Z,99547.00
2019-05-07T11:05:18.721Z,99543.00
2019-05-07T11:07:23.919Z,99539.00
2019-05-07T11:09:29.453Z,99534.00
2019-05-07T11:11:34.900Z,99527.00
2019-05-07T11:13:42.106Z,99531.00
2019-05-07T11:15:51.701Z,99529.00
2019-05-07T11:18:06.459Z,99533.00
2019-05-07T11:20:12.908Z,99519.00
2019-05-07T11:22:18.322Z,99525.00
2019-05-07T11:24:23.740Z,99508.00
2019-05-07T11:26:29.577Z,99519.00
2019-05-07T11:28:35.127Z,99519.00
2019-05-07T11:30:42.522Z,99516.00
2019-05-07T11:32:48.057Z,99526.00
2019-05-07T11:34:56.309Z,99520.00
2019-05-07T11:37:02.454Z,99511.00
2019-05-07T11:39:08.256Z,99513.00
2019-05-07T11:41:13.788Z,99509.00
2019-05-07T11:43:38.169Z,99509.00
2019-05-07T11:46:02.560Z,99506.00
2019-05-07T11:48:08.064Z,99502.00
2019-05-07T11:50:37.290Z,99500.00
2019-05-07T11:52:46.710Z,99493.00
2019-05-07T11:54:52.605Z,99500.00
2019-05-07T11:56:59.165Z,99488.00
2019-05-07T11:59:04.318Z,99491.00
2019-05-07T12:01:15.107Z,99487.00
2019-05-07T12:03:22.095Z,99492.00
2019-05-07T12:05:28.032Z,99492.00
2019-05-07T12:07:33.122Z,99491.00
2019-05-07T12:09:38.327Z,99490.00
2019-05-07T12:11:43.952Z,99490.00
2019-05-07T12:13:49.410Z,99483.00
2019-05-07T12:15:54.749Z,99483.00
2019-05-07T12:18:02.778Z,99489.00
2019-05-07T12:20:07.899Z,99485.00
2019-05-07T12:22:14.994Z,99473.00
2019-05-07T12:24:22.324Z,99476.00
2019-05-07T12:26:27.317Z,99474.00
2019-05-07T12:28:33.008Z,99477.00
2019-05-07T12:31:03.257Z,99463.00
2019-05-07T12:33:32.487Z,99474.00
2019-05-07T12:35:38.210Z,99478.00
2019-05-07T12:37:46.185Z,99461.00
2019-05-07T12:39:50.188Z,99463.00
2019-05-07T12:41:55.542Z,99460.00
2019-05-07T12:44:07.961Z,99458.00
2019-05-07T12:46:13.492Z,99460.00
2019-05-07T12:48:18.699Z,99459.00
2019-05-07T12:50:24.164Z,99455.00
2019-05-07T12:52:48.203Z,99457.00
2019-05-07T12:55:15.404Z,99455.00
2019-05-07T12:57:21.948Z,99454.00
2019-05-07T12:59:27.401Z,99451.00
2019-05-07T13:01:57.940Z,99451.00
2019-05-07T13:04:15.971Z,99462.00
2019-05-07T13:06:22.039Z,99446.00
2019-05-07T13:08:27.628Z,99460.00
2019-05-07T13:10:33.431Z,99449.00
2019-05-07T13:12:38.612Z,99453.00
2019-05-07T13:14:44.047Z,99452.00
2019-05-07T13:16:49.568Z,99447.00
2019-05-07T13:18:54.775Z,99436.00
2019-05-07T13:21:02.396Z,99443.00
2019-05-07T13:23:07.402Z,99440.00
2019-05-07T13:25:13.451Z,99439.00
2019-05-07T13:27:18.905Z,99438.00
2019-05-07T13:29:24.075Z,99440.00
2019-05-07T13:31:32.835Z,99433.00
2019-05-07T13:33:42.089Z,99426.00
2019-05-07T13:35:49.087Z,99431.00
2019-05-07T13:38:14.699Z,99434.00
2019-05-07T13:40:38.939Z,99422.00
2019-05-07T13:42:53.829Z,99422.00
2019-05-07T13:45:16.691Z,99424.00
2019-05-07T13:47:37.281Z,99416.00
2019-05-07T13:49:42.800Z,99413.00
2019-05-07T13:52:02.544Z,99414.00
2019-05-07T13:53:55.936Z,99407.00
2019-05-07T13:56:02.301Z,99406.00
2019-05-07T13:58:08.092Z,99408.00
2019-05-07T14:00:21.845Z,99407.00
2019-05-07T14:02:29.103Z,99404.00
2019-05-07T14:04:34.358Z,99405.00
2019-05-07T14:06:39.843Z,99405.00
2019-05-07T14:08:45.947Z,99407.00
2019-05-07T14:10:52.023Z,99401.00
2019-05-07T14:13:11.056Z,99404.00
2019-05-07T14:15:04.256Z,99396.00
2019-05-07T14:17:09.435Z,99404.00
2019-05-07T14:19:14.986Z,99403.00
2019-05-07T14:21:21.838Z,99400.00
2019-05-07T14:23:27.314Z,99402.00
2019-05-07T14:25:32.589Z,99396.00
2019-05-07T14:27:37.839Z,99402.00
2019-05-07T14:29:43.616Z,99404.00
2019-05-07T14:31:59.711Z,99397.00
2019-05-07T14:34:14.432Z,99395.00
2019-05-07T14:36:24.041Z,99394.00
2019-05-07T14:38:42.634Z,99391.00
2019-05-07T14:40:48.628Z,99380.00
2019-05-07T14:43:00.486Z,99376.00
2019-05-07T14:45:05.871Z,99376.00
2019-05-07T14:47:12.961Z,99369.00
2019-05-07T14:49:18.201Z,99369.00
2019-05-07T14:51:23.455Z,99372.00
2019-05-07T14:53:29.083Z,99367.00
2019-05-07T14:55:34.572Z,99371.00
2019-05-07T14:57:42.067Z,99370.00
2019-05-07T14:59:47.132Z,99361.00
2019-05-07T15:01:52.460Z,99365.00
2019-05-07T15:03:58.136Z,99363.00
2019-05-07T15:06:03.583Z,99356.00
2019-05-07T15:08:13.426Z,99353.00
2019-05-07T15:10:16.720Z,99345.00
2019-05-07T15:12:23.394Z,99337.00
2019-05-07T15:14:29.001Z,99348.00
2019-05-07T15:16:35.175Z,99348.00
2019-05-07T15:18:52.971Z,99338.00
2019-05-07T15:20:58.676Z,99337.00
2019-05-07T15:23:18.674Z,99336.00
2019-05-07T15:25:24.559Z,99333.00
2019-05-07T15:27:32.159Z,99336.00
2019-05-07T15:29:36.729Z,99328.00
2019-05-07T15:32:12.945Z,99327.00
2019-05-07T15:34:18.107Z,99333.00
2019-05-07T15:36:23.599Z,99327.00
2019-05-07T15:38:28.793Z,99322.00
2019-05-07T15:40:33.971Z,99314.00
2019-05-07T15:42:39.601Z,99321.00
2019-05-07T15:44:45.070Z,99313.00
2019-05-07T15:46:52.011Z,99311.00
2019-05-07T15:48:57.138Z,99311.00
2019-05-07T15:51:02.246Z,99312.00
2019-05-07T15:53:26.307Z,99292.00
2019-05-07T15:55:32.071Z,99309.00
2019-05-07T15:57:38.659Z,99299.00
2019-05-07T15:59:44.123Z,99296.00
2019-05-07T16:01:52.183Z,99304.00
2019-05-07T16:03:57.697Z,99293.00
2019-05-07T16:06:03.878Z,99294.00
2019-05-07T16:08:12.339Z,99295.00
2019-05-07T16:10:17.730Z,99287.00
2019-05-07T16:12:23.777Z,99291.00
2019-05-07T16:14:29.310Z,99285.00
2019-05-07T16:16:35.858Z,99289.00
2019-05-07T16:18:58.738Z,99286.00
2019-05-07T16:21:05.049Z,99288.00
2019-05-07T16:23:15.722Z,99279.00
2019-05-07T16:25:17.376Z,99278.00
2019-05-07T16:27:22.547Z,99279.00
2019-05-07T16:29:28.284Z,99268.00
2019-05-07T16:31:34.066Z,99272.00
2019-05-07T16:33:39.843Z,99266.00
2019-05-07T16:35:44.906Z,99261.00
2019-05-07T16:37:52.064Z,99253.00
2019-05-07T16:39:57.357Z,99260.00
2019-05-07T16:42:02.794Z,99259.00
2019-05-07T16:44:07.925Z,99250.00
2019-05-07T16:46:13.396Z,99253.00
2019-05-07T16:48:18.786Z,99249.00
2019-05-07T16:50:24.548Z,99244.00
2019-05-07T16:52:34.767Z,99240.00
2019-05-07T16:54:36.665Z,99254.00
2019-05-07T16:57:03.137Z,99250.00
2019-05-07T16:59:08.126Z,99244.00
2019-05-07T17:01:13.768Z,99247.00
2019-05-07T17:03:23.728Z,99243.00
2019-05-07T17:05:29.060Z,99237.00
2019-05-07T17:07:35.969Z,99244.00
2019-05-07T17:09:42.444Z,99241.00
2019-05-07T17:11:48.217Z,99241.00
2019-05-07T17:13:53.656Z,99239.00
2019-05-07T17:15:59.447Z,99240.00
2019-05-07T17:18:05.010Z,99240.00
2019-05-07T17:20:12.712Z,99238.00
2019-05-07T17:22:17.887Z,99236.00
2019-05-07T17:24:23.309Z,99236.00
2019-05-07T17:26:28.358Z,99231.00
2019-05-07T17:28:33.457Z,99228.00
2019-05-07T17:30:39.133Z,99240.00
2019-05-07T17:32:44.205Z,99237.00
2019-05-07T17:34:50.187Z,99238.00
2019-05-07T17:36:55.619Z,99240.00
2019-05-07T17:39:02.746Z,99232.00
2019-05-07T17:41:13.660Z,99228.00
2019-05-07T17:43:14.824Z,99217.00
2019-05-07T17:45:19.984Z,99233.00
2019-05-07T17:47:25.094Z,99239.00
2019-05-07T17:49:32.761Z,99240.00
2019-05-07T17:51:46.044Z,99236.00
2019-05-07T17:53:59.627Z,99234.00
2019-05-07T17:55:59.549Z,99225.00
2019-05-07T17:58:04.732Z,99222.00
2019-05-07T18:00:12.827Z,99221.00
2019-05-07T18:02:29.632Z,99228.00
2019-05-07T18:04:48.466Z,99219.00
2019-05-07T18:06:44.129Z,99223.00
2019-05-07T18:08:49.627Z,99217.00
2019-05-07T18:10:55.296Z,99215.00
2019-05-07T18:13:00.405Z,99215.00
2019-05-07T18:15:06.831Z,99214.00
2019-05-07T18:17:26.093Z,99211.00
2019-05-07T18:19:33.155Z,99215.00
2019-05-07T18:21:38.648Z,99211.00
2019-05-07T18:23:44.372Z,99208.00
2019-05-07T18:25:51.425Z,99209.00
2019-05-07T18:27:56.618Z,99213.00
2019-05-07T18:30:02.858Z,99207.00
2019-05-07T18:32:08.414Z,99212.00
2019-05-07T18:34:13.870Z,99211.00
2019-05-07T18:36:19.043Z,99203.00
2019-05-07T18:38:24.146Z,99211.00
2019-05-07T18:40:29.534Z,99206.00
2019-05-07T18:42:35.103Z,99201.00
2019-05-07T18:44:41.729Z,99203.00
2019-05-07T18:46:47.096Z,99207.00
2019-05-07T18:48:52.527Z,99212.00
2019-05-07T18:50:57.816Z,99202.00
2019-05-07T18:53:03.241Z,99209.00
2019-05-07T18:55:08.623Z,99203.00
2019-05-07T18:57:14.049Z,99195.00
2019-05-07T18:59:22.159Z,99204.00
2019-05-07T19:01:29.372Z,99198.00
2019-05-07T19:03:34.468Z,99193.00
2019-05-07T19:05:39.484Z,99200.00
2019-05-07T19:07:44.567Z,99199.00
2019-05-07T19:09:51.656Z,99202.00
2019-05-07T19:11:57.271Z,99195.00
2019-05-07T19:14:03.206Z,99197.00
2019-05-07T19:16:08.697Z,99194.00
2019-05-07T19:18:13.875Z,99197.00
2019-05-07T19:20:19.056Z,99201.00
2019-05-07T19:22:24.410Z,99203.00
2019-05-07T19:24:43.773Z,99205.00
2019-05-07T19:26:37.148Z,99205.00
2019-05-07T19:28:42.697Z,99211.00
2019-05-07T19:30:48.170Z,99199.00
2019-05-07T19:32:53.654Z,99204.00
2019-05-07T19:34:59.075Z,99199.00
2019-05-07T19:37:04.248Z,99209.00
2019-05-07T19:39:09.720Z,99199.00
2019-05-07T19:41:15.344Z,99208.00
2019-05-07T19:43:20.623Z,99206.00
2019-05-07T19:45:26.234Z,99206.00
2019-05-07T19:47:32.767Z,99210.00
2019-05-07T19:49:38.336Z,99215.00
2019-05-07T19:51:43.354Z,99209.00
2019-05-07T19:53:49.254Z,99207.00
2019-05-07T19:56:28.509Z,99219.00
2019-05-07T19:58:34.364Z,99210.00
2019-05-07T20:00:41.682Z,99206.00
2019-05-07T20:02:49.254Z,99203.00
2019-05-07T20:04:55.278Z,99202.00
2019-05-07T20:07:02.763Z,99203.00
2019-05-07T20:09:14.811Z,99196.00
2019-05-07T20:11:28.839Z,99194.00
2019-05-07T20:13:34.008Z,99198.00
2019-05-07T20:15:42.601Z,99200.00
2019-05-07T20:17:48.163Z,99200.00
2019-05-07T20:19:53.356Z,99197.00
2019-05-07T20:21:58.765Z,99202.00
2019-05-07T20:24:04.973Z,99205.00
2019-05-07T20:26:12.607Z,99196.00
2019-05-07T20:28:17.871Z,99194.00
2019-05-07T20:30:23.823Z,99191.00
2019-05-07T20:32:29.026Z,99193.00
2019-05-07T20:34:34.506Z,99184.00
2019-05-07T20:36:39.577Z,99187.00
2019-05-07T20:38:45.179Z,99178.00
2019-05-07T20:40:52.119Z,99179.00
2019-05-07T20:42:57.224Z,99173.00
2019-05-07T20:45:03.126Z,99175.00
2019-05-07T20:47:08.357Z,99170.00
2019-05-07T20:49:14.509Z,99162.00
2019-05-07T20:51:20.065Z,99159.00
2019-05-07T20:53:43.110Z,99150.00
2019-05-07T20:55:57.422Z,99148.00
2019-05-07T20:58:03.187Z,99150.00
2019-05-07T21:00:14.713Z,99142.00
2019-05-07T21:02:22.536Z,99137.00
2019-05-07T21:04:27.258Z,99134.00
2019-05-07T21:06:33.459Z,99125.00
2019-05-07T21:08:38.547Z,99123.00
2019-05-07T21:10:44.718Z,99130.00
2019-05-07T21:12:51.647Z,99129.00
2019-05-07T21:14:57.276Z,99123.00
2019-05-07T21:17:02.539Z,99129.00
2019-05-07T21:19:07.925Z,99120.00
2019-05-07T21:21:13.047Z,99120.00
2019-05-07T21:23:18.684Z,99118.00
2019-05-07T21:25:25.024Z,99123.00
2019-05-07T21:27:32.103Z,99121.00
2019-05-07T21:29:37.613Z,99110.00
2019-05-07T21:31:43.303Z,99115.00
2019-05-07T21:33:48.567Z,99111.00
2019-05-07T21:35:53.870Z,99119.00
2019-05-07T21:38:00.171Z,99106.00
2019-05-07T21:40:05.840Z,99112.00
2019-05-07T21:42:13.969Z,99110.00
2019-05-07T21:44:18.400Z,99107.00
2019-05-07T21:46:23.517Z,99118.00
2019-05-07T21:48:28.456Z,99111.00
2019-05-07T21:50:33.847Z,99113.00
2019-05-07T21:52:41.010Z,99108.00
2019-05-07T21:54:56.435Z,99102.00
2019-05-07T21:57:09.722Z,99101.00
2019-05-07T21:59:18.056Z,99104.00
2019-05-07T22:01:45.270Z,99102.00
2019-05-07T22:03:52.628Z,99098.00
2019-05-07T22:05:58.741Z,99092.00
2019-05-07T22:08:04.206Z,99082.00
2019-05-07T22:10:09.976Z,99081.00
2019-05-07T22:12:15.686Z,99078.00
2019-05-07T22:14:22.225Z,99071.00
2019-05-07T22:16:27.429Z,99072.00
2019-05-07T22:18:33.974Z,99072.00
2019-05-07T22:20:39.635Z,99069.00
2019-05-07T22:22:45.953Z,99078.00
2019-05-07T22:24:53.111Z,99068.00
2019-05-07T22:26:59.084Z,99067.00
2019-05-07T22:29:04.477Z,99070.00
2019-05-07T22:31:17.576Z,99068.00
2019-05-07T22:33:34.075Z,99058.00
2019-05-07T22:35:41.482Z,99056.00
2019-05-07T22:37:46.987Z,99051.00
2019-05-07T22:39:52.125Z,99047.00
2019-05-07T22:41:57.317Z,99044.00
2019-05-07T22:44:02.696Z,99040.00
2019-05-07T22:46:08.070Z,99047.00
2019-05-07T22:48:13.267Z,99040.00
2019-05-07T22:50:18.579Z,99023.00
2019-05-07T22:52:24.147Z,99018.00
2019-05-07T22:54:29.348Z,99014.00
2019-05-07T22:56:52.576Z,99014.00
2019-05-07T22:58:57.933Z,99024.00
2019-05-07T23:01:06.701Z,99013.00
2019-05-07T23:03:12.428Z,99019.00
2019-05-07T23:05:17.639Z,99015.00
2019-05-07T23:07:22.721Z,99007.00
2019-05-07T23:09:28.203Z,98994.00
2019-05-07T23:11:33.447Z,99011.00
2019-05-07T23:13:38.661Z,99003.00
2019-05-07T23:15:44.152Z,98992.00
2019-05-07T23:17:49.072Z,98994.00
2019-05-07T23:19:55.174Z,98996.00
2019-05-07T23:22:02.647Z,98983.00
2019-05-07T23:24:07.330Z,98981.00
2019-05-07T23:26:14.897Z,98982.00
2019-05-07T23:28:20.318Z,98973.00
2019-05-07T23:30:25.340Z,98977.00
2019-05-07T23:32:32.780Z,98970.00
2019-05-07T23:34:37.787Z,98964.00
2019-05-07T23:36:42.936Z,98965.00
2019-05-07T23:38:48.342Z,98959.00
2019-05-07T23:41:15.346Z,98954.00
2019-05-07T23:43:22.714Z,98951.00
2019-05-07T23:45:28.282Z,98950.00
2019-05-07T23:47:33.298Z,98951.00
2019-05-07T23:49:39.371Z,98947.00
2019-05-07T23:51:44.539Z,98941.00
2019-05-07T23:53:51.854Z,98942.00
2019-05-07T23:55:56.676Z,98939.00
2019-05-07T23:58:03.063Z,98928.00
